Portada
METAR-TAF:

METAR-TAF

Aeroports :

Orange County Airport

Montgomery, Nova York, Estats Units d'Amèrica

latitud: 41-30-33N, longitud: 074-15-54W, altitud: 111 m

Observació

L'informe es va fer fa 38 minuts, a les 03:54 UTC
Vent calma
Temperatura 18°C
Humitat 100%
Pressió 1018 hPa
Visibilitat: 16.1 km
Escasses núvols a una alçada de 11000 ft

METAR: KMGJ 270354Z AUTO 00000KT 10SM FEW110 18/18 A3007 RMK AO2 SLP180 T01780178

Hora: 00:32 (04:32 UTC)


TAF: manca

Observacions i pronòstics meteorològics de més de 4000 aeroports (METAR i TAF).

Les estacions disponibles són els punts grocs i vermells al mapa.

Posi el ratolí al punt desitjat per veure el nom de l'estació.

Feu clic per veure les observacions i els pronòstics meteorològics.

Per canviar el mapa: feu clic els botons verds amb una creu de color negre per apropar; al botó verd amb un guió per allunyar la imatge; o en les fletxes verdes per a mapes adjacents.


METAR-TAF: